メインページ
METAR-TAF:

METAR-TAF

空港 :

ガティノー, ケベック州, カナダ

緯度: 45-31N, 経度: 075-34W, 海抜: 64m

現時点の気象観測

当レポートは16分前の19:00(UTC)に作成
西の風 16kt
気温 32°C
湿度 56%
気圧 1005 hPa
視程: 24.1km
高度4800ftの雲は散在している, 塔状積雲.
高度13000ftの千切れ雲あり
高度26000ftの千切れ雲あり

METAR: CYND 191900Z 27016KT 15SM SCT048TCU BKN130 BKN260 32/22 A2969 RMK TCU3AC2CI1 CI TR SLP056 DENSITY ALT 2500FT

時間: 15:16 (19:16 UTC)

予報

当レポートは1時間38分前の17:38(UTC)に作成
予報は19日の 18時(UTC)から 20日の 01時(UTC)まで有効
西の風 12kt、最大22ktの突風を伴う
視程: 10km
高度4000ftの千切れ雲あり
高度15000ftの曇り
19日の 22時(UTC)から 19日の 24時(UTC)まで一時的に
視程: 10km
高度4000ftの雲は散在している, 積乱雲.
近辺で激しい雷雨
20日の 0000時(UTC)から
西/南西の風 10kt、最大20ktの突風を伴う
視程: 10km
高度4000ftの雲はほとんどない
20日の 00時(UTC)から 20日の 01時(UTC)まで一時的に
高度4000ftの千切れ雲あり

TAF: CYND 191738Z 1918/2001 26012G22KT P6SM BKN040 OVC150 TEMPO 1922/1924 P6SM VCTS SCT040CB FM200000 25010G20KT P6SM FEW040 TEMPO 2000/2001 BKN040 RMK NXT FCST WILL BE ISSUED AT 201245Z

4,000以上の空港の気象観測と天気予報(METAR報とTAF報)

利用可能な観測所は地図上に黄色い丸と赤い丸で示す。

丸の上にカーソルを重ねると観測所名を参照できる。

次にクリックすると気象観測と天気予報を参照できる。

マップの切り替え:黒色「×」印の緑ボタンをクリックして拡大、「-」印の緑ボタンをクリックして縮小、緑色の三角印をクリックして隣りの地図に切り替え


METAR-TAF: